Weather at Fedex Field Heliport

Public forecast

Using degrees Fahrenheit for public forecast. Weather courtesy of forecast.io.

Closest aviation weather report (METAR) to Fedex Field Heliport

Closest report is College Park Airport, 5.0 nm (9.3 km) NNW.

2024/06/15 03:25 (retrieved 31 minutes ago)

KCGS 150325Z AUTO 00000KT 10SM BKN055 21/20 A2992 RMK AO2 P0001 T02110202

Closest aviation forecast (TAF) to Fedex Field Heliport

Forecast is more than 6 hours old.

Closest forecast is Davison Army Air Field, 18.7 nm (34.7 km) SW.

2024/06/14 20:00 (retrieved 8 hours ago)

TAF KDAA 142000Z 1420/1602 16009KT 9999 VCSH SCT050 BKN100 QNH2980INS BECMG 1420/1421 29007KT 8000 -SHRA VCTS SCT035CB BKN060 OVC100 QNH2978INS TEMPO 1422/1502 VRB15G25KT 4800 -TSRA SCT025CB OVC035 BECMG 1505/1506 34009KT 9999 NSW FEW020 BKN080 QNH2985INS BECMG 1508/1509 35009KT 9999 FEW030 SCT060 QNH2992INS BECMG 1514/1515 35010G15KT 9999 FEW050 SCT250 QNH3002INS TX33/1420Z TN19/1509Z LAST NO AMDS AFT 1501 NEXT 1712